Airfield :
LOGIN :

Register | Disclaimer

   EN    FR    IT 

 










Legend :    VFR   Marginal VFR   IFR   Intensive IFR   Very Intensive IFR
Visi :
Ceiling :
>= 8 km
>= 3000ft
5 to 8 km
1000 to 3000 ft
1500m to 5 km
500 to 1000 ft
800 to 1500m
200 to 500 ft
< 800m
< 200 ft
Symbols :   Thunderstorms  Fog  Heavy snow  Heavy precipitations  Wind > 20 kt
SIGMETs :     Misc.  Thunderstorms  Icing  Turbulence  Mountain Waves  Volcanic Ashes






- Airport Elevation : 33 ft
- IATA code : MHZ


EGUN - RAF Mildenhall

CURRENT METAR :
  • 290356Z 32007KT 9999 BKN040 BKN050 06/04 A3014 RMK AO2A SLP210 T00610041

EXPIRED METARs :
  • 290258Z AUTO 32008KT 9999 OVC046 07/07 A3015 RMK AO2 RAE58 SLP213
  • 290256Z AUTO 31007KT 9999 -RA OVC046 07/07 A3015 RMK AO2 RAB35E44RAB49 SLP213 P0000 60000 T00660066 57014
  • 290249Z AUTO 32007KT 9999 -RA OVC046 07/07 A3015 RMK AO2 RAB35E44RAB49 SLP213
  • 290235Z AUTO 32006KT 9999 -RA OVC046 06/06 A3015 RMK AO2 RAB35 SLP213
  • 290156Z AUTO 32007KT 9999 SCT033 BKN047 06/06 A3017 RMK AO2 RAE06 SLP220 P0000 T00640064

TAF TAF EGUN
Valid from the 29 at 04:00 until the 30 at 10:00 UTC


290400Z 2904/3010 33012KT 9999 FEW015 SCT020 BKN035 QNH3013INS
TEMPO 2904/2908 BKN012
BECMG 2907/2908 35010G15KT 9999 SCT020 BKN050 QNH3002INS
TEMPO 2908/2914 36010G20KT VCSH
BECMG 2919/2921 03009KT 9999 FEW010 BKN020 QNH2999INS
BECMG 3000/3002 25006KT 9000 BR BKN060 QNH2993INS
BECMG 3005/3006 23009KT 9999 NSW BKN065 BKN180 QNH2992INS TX13/2913Z TN05/3003Z



MET'MAP, your aeronautical weather chart ! - Copyright ORBIFLY December 2007 - Disclaimer

ORBIFLY MET'MAP TEAM :

Programming & Development : Alexandra Zaïnal
Original concept : Baudouin d'Aumeries
Technical & hardware support : Manuel Goepfert
Assistance : Marc-Olivier Méhu

Contact : metmap@orbifly.com




SOURCES & CREDITS :

   NOAA